sensor_id;sensor_type;location;lat;lon;timestamp;P1;durP1;ratioP1;P2;durP2;ratioP2
10096;SDS011;5087;42.662;23.466;2023-05-10T00:00:59;0.00;;;0.00;;
10096;SDS011;5087;42.662;23.466;2023-05-10T00:03:26;0.00;;;0.00;;
10096;SDS011;5087;42.662;23.466;2023-05-10T00:05:53;0.00;;;0.00;;
10096;SDS011;5087;42.662;23.466;2023-05-10T00:08:20;0.10;;;0.10;;
10096;SDS011;5087;42.662;23.466;2023-05-10T00:10:47;0.00;;;0.00;;
10096;SDS011;5087;42.662;23.466;2023-05-10T00:13:16;0.00;;;0.00;;
10096;SDS011;5087;42.662;23.466;2023-05-10T00:15:43;0.00;;;0.00;;
10096;SDS011;5087;42.662;23.466;2023-05-10T00:18:10;0.00;;;0.00;;
10096;SDS011;5087;42.662;23.466;2023-05-10T00:20:37;0.40;;;0.40;;
10096;SDS011;5087;42.662;23.466;2023-05-10T00:23:04;0.00;;;0.00;;
10096;SDS011;5087;42.662;23.466;2023-05-10T00:25:31;0.00;;;0.00;;
10096;SDS011;5087;42.662;23.466;2023-05-10T00:27:58;0.10;;;0.10;;
10096;SDS011;5087;42.662;23.466;2023-05-10T00:30:28;0.93;;;0.50;;
10096;SDS011;5087;42.662;23.466;2023-05-10T00:32:55;0.00;;;0.00;;
10096;SDS011;5087;42.662;23.466;2023-05-10T00:35:25;0.07;;;0.07;;
10096;SDS011;5087;42.662;23.466;2023-05-10T00:37:54;0.00;;;0.00;;
10096;SDS011;5087;42.662;23.466;2023-05-10T00:40:21;0.60;;;0.60;;
10096;SDS011;5087;42.662;23.466;2023-05-10T00:42:53;0.00;;;0.00;;
10096;SDS011;5087;42.662;23.466;2023-05-10T00:45:21;0.00;;;0.00;;
10096;SDS011;5087;42.662;23.466;2023-05-10T00:47:49;0.20;;;0.20;;
10096;SDS011;5087;42.662;23.466;2023-05-10T00:50:17;0.00;;;0.00;;
10096;SDS011;5087;42.662;23.466;2023-05-10T00:52:45;0.13;;;0.13;;
10096;SDS011;5087;42.662;23.466;2023-05-10T00:55:12;0.00;;;0.00;;
10096;SDS011;5087;42.662;23.466;2023-05-10T00:57:40;0.00;;;0.00;;
10096;SDS011;5087;42.662;23.466;2023-05-10T01:00:08;0.27;;;0.27;;
10096;SDS011;5087;42.662;23.466;2023-05-10T01:02:37;0.87;;;0.33;;
10096;SDS011;5087;42.662;23.466;2023-05-10T01:05:06;0.00;;;0.00;;
10096;SDS011;5087;42.662;23.466;2023-05-10T01:07:33;0.00;;;0.00;;
10096;SDS011;5087;42.662;23.466;2023-05-10T01:10:02;0.00;;;0.00;;
10096;SDS011;5087;42.662;23.466;2023-05-10T01:12:29;0.00;;;0.00;;
10096;SDS011;5087;42.662;23.466;2023-05-10T01:14:57;0.00;;;0.00;;
10096;SDS011;5087;42.662;23.466;2023-05-10T01:17:26;0.00;;;0.00;;
10096;SDS011;5087;42.662;23.466;2023-05-10T01:19:54;0.00;;;0.00;;
10096;SDS011;5087;42.662;23.466;2023-05-10T01:22:30;0.00;;;0.00;;
10096;SDS011;5087;42.662;23.466;2023-05-10T01:25:17;0.00;;;0.00;;
10096;SDS011;5087;42.662;23.466;2023-05-10T01:31:03;0.00;;;0.00;;
10096;SDS011;5087;42.662;23.466;2023-05-10T01:33:51;0.00;;;0.00;;
10096;SDS011;5087;42.662;23.466;2023-05-10T01:36:24;0.40;;;0.40;;
10096;SDS011;5087;42.662;23.466;2023-05-10T01:38:59;0.00;;;0.00;;
10096;SDS011;5087;42.662;23.466;2023-05-10T01:41:31;0.33;;;0.33;;
10096;SDS011;5087;42.662;23.466;2023-05-10T01:44:09;0.00;;;0.00;;
10096;SDS011;5087;42.662;23.466;2023-05-10T01:46:45;0.00;;;0.00;;
10096;SDS011;5087;42.662;23.466;2023-05-10T01:49:20;0.00;;;0.00;;
10096;SDS011;5087;42.662;23.466;2023-05-10T01:51:53;0.00;;;0.00;;
10096;SDS011;5087;42.662;23.466;2023-05-10T01:54:26;0.00;;;0.00;;
10096;SDS011;5087;42.662;23.466;2023-05-10T01:56:56;0.20;;;0.20;;
10096;SDS011;5087;42.662;23.466;2023-05-10T01:59:28;5.00;;;3.63;;
10096;SDS011;5087;42.662;23.466;2023-05-10T02:02:01;0.10;;;0.10;;
10096;SDS011;5087;42.662;23.466;2023-05-10T02:04:32;0.10;;;0.10;;
10096;SDS011;5087;42.662;23.466;2023-05-10T02:07:02;1.70;;;0.63;;
10096;SDS011;5087;42.662;23.466;2023-05-10T02:13:00;0.60;;;0.60;;
10096;SDS011;5087;42.662;23.466;2023-05-10T02:15:30;0.10;;;0.10;;
10096;SDS011;5087;42.662;23.466;2023-05-10T02:17:59;0.60;;;0.60;;
10096;SDS011;5087;42.662;23.466;2023-05-10T02:20:30;0.10;;;0.10;;
10096;SDS011;5087;42.662;23.466;2023-05-10T02:22:59;0.10;;;0.10;;
10096;SDS011;5087;42.662;23.466;2023-05-10T02:25:28;0.10;;;0.10;;
10096;SDS011;5087;42.662;23.466;2023-05-10T02:27:58;0.20;;;0.20;;
10096;SDS011;5087;42.662;23.466;2023-05-10T02:30:36;0.43;;;0.43;;
10096;SDS011;5087;42.662;23.466;2023-05-10T02:33:05;0.20;;;0.20;;
10096;SDS011;5087;42.662;23.466;2023-05-10T02:35:36;0.20;;;0.20;;
10096;SDS011;5087;42.662;23.466;2023-05-10T02:38:05;0.20;;;0.20;;
10096;SDS011;5087;42.662;23.466;2023-05-10T02:40:34;0.70;;;0.70;;
10096;SDS011;5087;42.662;23.466;2023-05-10T02:43:03;0.20;;;0.20;;
10096;SDS011;5087;42.662;23.466;2023-05-10T02:45:33;0.20;;;0.20;;
10096;SDS011;5087;42.662;23.466;2023-05-10T02:48:07;0.30;;;0.30;;
10096;SDS011;5087;42.662;23.466;2023-05-10T02:50:36;0.20;;;0.20;;
10096;SDS011;5087;42.662;23.466;2023-05-10T02:53:06;0.60;;;0.60;;
10096;SDS011;5087;42.662;23.466;2023-05-10T02:55:38;0.73;;;0.73;;
10096;SDS011;5087;42.662;23.466;2023-05-10T02:58:08;1.03;;;1.03;;
10096;SDS011;5087;42.662;23.466;2023-05-10T03:00:35;1.33;;;1.33;;
10096;SDS011;5087;42.662;23.466;2023-05-10T03:03:03;0.37;;;0.37;;
10096;SDS011;5087;42.662;23.466;2023-05-10T03:05:30;0.70;;;0.70;;
10096;SDS011;5087;42.662;23.466;2023-05-10T03:08:09;0.10;;;0.10;;
10096;SDS011;5087;42.662;23.466;2023-05-10T03:10:37;0.20;;;0.20;;
10096;SDS011;5087;42.662;23.466;2023-05-10T03:13:16;0.40;;;0.40;;
10096;SDS011;5087;42.662;23.466;2023-05-10T03:15:55;0.10;;;0.10;;
10096;SDS011;5087;42.662;23.466;2023-05-10T03:18:28;0.10;;;0.10;;
10096;SDS011;5087;42.662;23.466;2023-05-10T03:21:02;0.20;;;0.20;;
10096;SDS011;5087;42.662;23.466;2023-05-10T03:23:35;0.30;;;0.30;;
10096;SDS011;5087;42.662;23.466;2023-05-10T03:26:08;0.13;;;0.13;;
10096;SDS011;5087;42.662;23.466;2023-05-10T03:28:44;0.20;;;0.20;;
10096;SDS011;5087;42.662;23.466;2023-05-10T03:31:17;0.20;;;0.20;;
10096;SDS011;5087;42.662;23.466;2023-05-10T03:33:48;0.20;;;0.20;;
10096;SDS011;5087;42.662;23.466;2023-05-10T03:36:21;0.10;;;0.10;;
10096;SDS011;5087;42.662;23.466;2023-05-10T03:38:50;0.20;;;0.20;;
10096;SDS011;5087;42.662;23.466;2023-05-10T03:41:17;0.20;;;0.20;;
10096;SDS011;5087;42.662;23.466;2023-05-10T03:43:46;0.20;;;0.20;;
10096;SDS011;5087;42.662;23.466;2023-05-10T03:46:14;0.40;;;0.40;;
10096;SDS011;5087;42.662;23.466;2023-05-10T03:48:41;0.10;;;0.10;;
10096;SDS011;5087;42.662;23.466;2023-05-10T03:51:09;0.10;;;0.10;;
10096;SDS011;5087;42.662;23.466;2023-05-10T03:53:37;0.93;;;0.93;;
10096;SDS011;5087;42.662;23.466;2023-05-10T03:56:06;0.10;;;0.10;;
10096;SDS011;5087;42.662;23.466;2023-05-10T03:58:34;0.10;;;0.10;;
10096;SDS011;5087;42.662;23.466;2023-05-10T04:01:01;0.10;;;0.10;;
10096;SDS011;5087;42.662;23.466;2023-05-10T04:03:29;0.10;;;0.10;;
10096;SDS011;5087;42.662;23.466;2023-05-10T04:06:02;0.10;;;0.10;;
10096;SDS011;5087;42.662;23.466;2023-05-10T04:08:30;0.40;;;0.40;;
10096;SDS011;5087;42.662;23.466;2023-05-10T04:11:06;0.20;;;0.20;;
10096;SDS011;5087;42.662;23.466;2023-05-10T04:13:34;0.20;;;0.20;;
10096;SDS011;5087;42.662;23.466;2023-05-10T04:16:01;0.10;;;0.10;;
10096;SDS011;5087;42.662;23.466;2023-05-10T04:18:28;0.30;;;0.30;;
10096;SDS011;5087;42.662;23.466;2023-05-10T04:20:56;1.47;;;1.37;;
10096;SDS011;5087;42.662;23.466;2023-05-10T04:23:23;0.20;;;0.20;;
10096;SDS011;5087;42.662;23.466;2023-05-10T04:25:52;0.40;;;0.40;;
10096;SDS011;5087;42.662;23.466;2023-05-10T04:28:21;0.33;;;0.33;;
10096;SDS011;5087;42.662;23.466;2023-05-10T04:30:48;0.20;;;0.20;;
10096;SDS011;5087;42.662;23.466;2023-05-10T04:33:16;0.93;;;0.93;;
10096;SDS011;5087;42.662;23.466;2023-05-10T04:35:43;0.40;;;0.40;;
10096;SDS011;5087;42.662;23.466;2023-05-10T04:38:11;0.10;;;0.10;;
10096;SDS011;5087;42.662;23.466;2023-05-10T04:40:38;0.10;;;0.10;;
10096;SDS011;5087;42.662;23.466;2023-05-10T04:43:05;0.20;;;0.20;;
10096;SDS011;5087;42.662;23.466;2023-05-10T04:45:34;0.20;;;0.20;;
10096;SDS011;5087;42.662;23.466;2023-05-10T04:48:02;0.20;;;0.20;;
10096;SDS011;5087;42.662;23.466;2023-05-10T04:50:30;0.20;;;0.20;;
10096;SDS011;5087;42.662;23.466;2023-05-10T04:52:58;0.20;;;0.20;;
10096;SDS011;5087;42.662;23.466;2023-05-10T04:55:25;0.43;;;0.43;;
10096;SDS011;5087;42.662;23.466;2023-05-10T04:57:53;0.10;;;0.10;;
10096;SDS011;5087;42.662;23.466;2023-05-10T05:00:25;0.20;;;0.20;;
10096;SDS011;5087;42.662;23.466;2023-05-10T05:02:58;0.47;;;0.47;;
10096;SDS011;5087;42.662;23.466;2023-05-10T05:05:26;0.20;;;0.20;;
10096;SDS011;5087;42.662;23.466;2023-05-10T05:07:54;0.20;;;0.20;;
10096;SDS011;5087;42.662;23.466;2023-05-10T05:10:24;0.37;;;0.37;;
10096;SDS011;5087;42.662;23.466;2023-05-10T05:12:52;0.27;;;0.27;;
10096;SDS011;5087;42.662;23.466;2023-05-10T05:15:19;0.20;;;0.20;;
10096;SDS011;5087;42.662;23.466;2023-05-10T05:17:46;0.20;;;0.20;;
10096;SDS011;5087;42.662;23.466;2023-05-10T05:20:15;0.87;;;0.87;;
10096;SDS011;5087;42.662;23.466;2023-05-10T05:22:45;0.67;;;0.67;;
10096;SDS011;5087;42.662;23.466;2023-05-10T05:25:13;0.30;;;0.30;;
10096;SDS011;5087;42.662;23.466;2023-05-10T05:27:40;0.43;;;0.43;;
10096;SDS011;5087;42.662;23.466;2023-05-10T05:30:08;1.13;;;1.13;;
10096;SDS011;5087;42.662;23.466;2023-05-10T05:32:36;0.30;;;0.30;;
10096;SDS011;5087;42.662;23.466;2023-05-10T05:35:05;0.30;;;0.30;;
10096;SDS011;5087;42.662;23.466;2023-05-10T05:37:34;4.23;;;2.53;;
10096;SDS011;5087;42.662;23.466;2023-05-10T05:40:02;0.30;;;0.30;;
10096;SDS011;5087;42.662;23.466;2023-05-10T05:42:30;0.60;;;0.60;;
10096;SDS011;5087;42.662;23.466;2023-05-10T05:45:07;0.30;;;0.30;;
10096;SDS011;5087;42.662;23.466;2023-05-10T05:47:39;0.30;;;0.30;;
10096;SDS011;5087;42.662;23.466;2023-05-10T05:50:06;0.57;;;0.57;;
10096;SDS011;5087;42.662;23.466;2023-05-10T05:52:35;0.53;;;0.53;;
10096;SDS011;5087;42.662;23.466;2023-05-10T05:55:03;0.63;;;0.63;;
10096;SDS011;5087;42.662;23.466;2023-05-10T05:57:30;0.93;;;0.93;;
10096;SDS011;5087;42.662;23.466;2023-05-10T05:59:58;0.80;;;0.80;;
10096;SDS011;5087;42.662;23.466;2023-05-10T06:02:28;0.60;;;0.60;;
10096;SDS011;5087;42.662;23.466;2023-05-10T06:05:00;0.60;;;0.60;;
10096;SDS011;5087;42.662;23.466;2023-05-10T06:07:28;0.50;;;0.50;;
10096;SDS011;5087;42.662;23.466;2023-05-10T06:09:57;0.80;;;0.80;;
10096;SDS011;5087;42.662;23.466;2023-05-10T06:12:25;0.87;;;0.87;;
10096;SDS011;5087;42.662;23.466;2023-05-10T06:14:58;0.70;;;0.70;;
10096;SDS011;5087;42.662;23.466;2023-05-10T06:17:28;2.63;;;2.40;;
10096;SDS011;5087;42.662;23.466;2023-05-10T06:20:28;0.60;;;0.60;;
10096;SDS011;5087;42.662;23.466;2023-05-10T06:22:56;0.80;;;0.80;;
10096;SDS011;5087;42.662;23.466;2023-05-10T06:25:26;1.30;;;1.30;;
10096;SDS011;5087;42.662;23.466;2023-05-10T06:27:53;0.97;;;0.97;;
10096;SDS011;5087;42.662;23.466;2023-05-10T06:30:26;1.30;;;1.30;;
10096;SDS011;5087;42.662;23.466;2023-05-10T06:32:54;1.00;;;1.00;;
10096;SDS011;5087;42.662;23.466;2023-05-10T06:35:21;0.70;;;0.70;;
10096;SDS011;5087;42.662;23.466;2023-05-10T06:37:52;0.70;;;0.70;;
10096;SDS011;5087;42.662;23.466;2023-05-10T06:40:20;0.80;;;0.80;;
10096;SDS011;5087;42.662;23.466;2023-05-10T06:42:48;3.07;;;1.87;;
10096;SDS011;5087;42.662;23.466;2023-05-10T06:45:16;1.30;;;1.30;;
10096;SDS011;5087;42.662;23.466;2023-05-10T06:47:44;1.20;;;1.20;;
10096;SDS011;5087;42.662;23.466;2023-05-10T06:50:11;1.70;;;1.70;;
10096;SDS011;5087;42.662;23.466;2023-05-10T06:52:40;2.03;;;2.03;;
10096;SDS011;5087;42.662;23.466;2023-05-10T06:55:10;1.93;;;1.93;;
10096;SDS011;5087;42.662;23.466;2023-05-10T06:57:37;1.70;;;1.70;;
10096;SDS011;5087;42.662;23.466;2023-05-10T07:00:06;2.23;;;2.23;;
10096;SDS011;5087;42.662;23.466;2023-05-10T07:02:34;1.80;;;1.80;;
10096;SDS011;5087;42.662;23.466;2023-05-10T07:05:02;2.40;;;2.40;;
10096;SDS011;5087;42.662;23.466;2023-05-10T07:07:29;2.60;;;2.60;;
10096;SDS011;5087;42.662;23.466;2023-05-10T07:10:00;2.20;;;2.20;;
10096;SDS011;5087;42.662;23.466;2023-05-10T07:12:27;2.50;;;2.50;;
10096;SDS011;5087;42.662;23.466;2023-05-10T07:14:55;2.50;;;2.50;;
10096;SDS011;5087;42.662;23.466;2023-05-10T07:17:27;2.30;;;2.30;;
10096;SDS011;5087;42.662;23.466;2023-05-10T07:19:54;2.50;;;2.50;;
10096;SDS011;5087;42.662;23.466;2023-05-10T07:22:22;2.40;;;2.40;;
10096;SDS011;5087;42.662;23.466;2023-05-10T07:24:50;1.93;;;1.93;;
10096;SDS011;5087;42.662;23.466;2023-05-10T07:27:17;2.47;;;2.47;;
10096;SDS011;5087;42.662;23.466;2023-05-10T07:29:44;3.70;;;3.67;;
10096;SDS011;5087;42.662;23.466;2023-05-10T07:32:11;2.90;;;2.90;;
10096;SDS011;5087;42.662;23.466;2023-05-10T07:34:40;3.10;;;3.00;;
10096;SDS011;5087;42.662;23.466;2023-05-10T07:37:08;2.80;;;2.80;;
10096;SDS011;5087;42.662;23.466;2023-05-10T07:39:35;2.80;;;2.80;;
10096;SDS011;5087;42.662;23.466;2023-05-10T07:42:02;2.40;;;2.40;;
10096;SDS011;5087;42.662;23.466;2023-05-10T07:44:31;2.17;;;2.17;;
10096;SDS011;5087;42.662;23.466;2023-05-10T07:46:58;2.30;;;2.30;;
10096;SDS011;5087;42.662;23.466;2023-05-10T07:49:25;2.40;;;2.40;;
10096;SDS011;5087;42.662;23.466;2023-05-10T07:51:55;2.00;;;2.00;;
10096;SDS011;5087;42.662;23.466;2023-05-10T07:54:25;1.50;;;1.50;;
10096;SDS011;5087;42.662;23.466;2023-05-10T07:56:57;1.40;;;1.40;;
10096;SDS011;5087;42.662;23.466;2023-05-10T07:59:25;1.30;;;1.30;;
10096;SDS011;5087;42.662;23.466;2023-05-10T08:01:52;1.80;;;1.80;;
10096;SDS011;5087;42.662;23.466;2023-05-10T08:04:20;1.70;;;1.70;;
10096;SDS011;5087;42.662;23.466;2023-05-10T08:06:47;1.50;;;1.50;;
10096;SDS011;5087;42.662;23.466;2023-05-10T08:09:16;2.97;;;2.17;;
10096;SDS011;5087;42.662;23.466;2023-05-10T08:11:47;1.60;;;1.60;;
10096;SDS011;5087;42.662;23.466;2023-05-10T08:14:14;1.50;;;1.50;;
10096;SDS011;5087;42.662;23.466;2023-05-10T08:16:41;1.60;;;1.60;;
10096;SDS011;5087;42.662;23.466;2023-05-10T08:19:12;1.50;;;1.50;;
10096;SDS011;5087;42.662;23.466;2023-05-10T08:21:44;1.70;;;1.70;;
10096;SDS011;5087;42.662;23.466;2023-05-10T08:24:11;2.43;;;2.23;;
10096;SDS011;5087;42.662;23.466;2023-05-10T08:26:40;1.80;;;1.80;;
10096;SDS011;5087;42.662;23.466;2023-05-10T08:29:07;1.70;;;1.70;;
10096;SDS011;5087;42.662;23.466;2023-05-10T08:31:34;2.00;;;2.00;;
10096;SDS011;5087;42.662;23.466;2023-05-10T08:34:02;1.80;;;1.80;;
10096;SDS011;5087;42.662;23.466;2023-05-10T08:36:35;1.80;;;1.80;;
10096;SDS011;5087;42.662;23.466;2023-05-10T08:39:02;1.93;;;1.93;;
10096;SDS011;5087;42.662;23.466;2023-05-10T08:41:30;4.50;;;4.30;;
10096;SDS011;5087;42.662;23.466;2023-05-10T08:44:02;1.90;;;1.90;;
10096;SDS011;5087;42.662;23.466;2023-05-10T08:46:34;2.70;;;2.67;;
10096;SDS011;5087;42.662;23.466;2023-05-10T08:49:05;2.70;;;2.70;;
10096;SDS011;5087;42.662;23.466;2023-05-10T08:51:35;2.20;;;2.20;;
10096;SDS011;5087;42.662;23.466;2023-05-10T08:54:07;1.50;;;1.50;;
10096;SDS011;5087;42.662;23.466;2023-05-10T08:56:34;1.63;;;1.63;;
10096;SDS011;5087;42.662;23.466;2023-05-10T08:59:04;1.20;;;1.20;;
10096;SDS011;5087;42.662;23.466;2023-05-10T09:01:36;1.00;;;1.00;;
10096;SDS011;5087;42.662;23.466;2023-05-10T09:04:05;1.30;;;1.30;;
10096;SDS011;5087;42.662;23.466;2023-05-10T09:06:32;0.90;;;0.90;;
10096;SDS011;5087;42.662;23.466;2023-05-10T09:09:05;1.20;;;1.20;;
10096;SDS011;5087;42.662;23.466;2023-05-10T09:11:32;1.50;;;1.50;;
10096;SDS011;5087;42.662;23.466;2023-05-10T09:14:00;3.20;;;3.17;;
10096;SDS011;5087;42.662;23.466;2023-05-10T09:16:29;2.33;;;2.33;;
10096;SDS011;5087;42.662;23.466;2023-05-10T09:18:57;1.97;;;1.97;;
10096;SDS011;5087;42.662;23.466;2023-05-10T09:21:28;3.83;;;3.73;;
10096;SDS011;5087;42.662;23.466;2023-05-10T09:23:57;3.50;;;3.50;;
10096;SDS011;5087;42.662;23.466;2023-05-10T09:26:29;3.10;;;3.10;;
10096;SDS011;5087;42.662;23.466;2023-05-10T09:28:57;2.90;;;2.90;;
10096;SDS011;5087;42.662;23.466;2023-05-10T09:31:44;2.40;;;2.40;;
10096;SDS011;5087;42.662;23.466;2023-05-10T09:34:19;2.60;;;2.60;;
10096;SDS011;5087;42.662;23.466;2023-05-10T09:36:54;3.00;;;3.00;;
10096;SDS011;5087;42.662;23.466;2023-05-10T09:39:30;2.90;;;2.90;;
10096;SDS011;5087;42.662;23.466;2023-05-10T09:41:58;3.13;;;3.13;;
10096;SDS011;5087;42.662;23.466;2023-05-10T09:44:31;3.10;;;3.10;;
10096;SDS011;5087;42.662;23.466;2023-05-10T09:47:02;3.10;;;3.10;;
10096;SDS011;5087;42.662;23.466;2023-05-10T09:49:30;2.83;;;2.83;;
10096;SDS011;5087;42.662;23.466;2023-05-10T09:52:02;3.50;;;3.50;;
10096;SDS011;5087;42.662;23.466;2023-05-10T09:54:30;3.10;;;3.10;;
10096;SDS011;5087;42.662;23.466;2023-05-10T09:57:00;3.17;;;3.17;;
10096;SDS011;5087;42.662;23.466;2023-05-10T09:59:28;2.80;;;2.80;;
10096;SDS011;5087;42.662;23.466;2023-05-10T10:01:56;3.90;;;3.80;;
10096;SDS011;5087;42.662;23.466;2023-05-10T10:04:27;2.90;;;2.90;;
10096;SDS011;5087;42.662;23.466;2023-05-10T10:07:04;3.10;;;3.10;;
10096;SDS011;5087;42.662;23.466;2023-05-10T10:09:32;3.10;;;3.10;;
10096;SDS011;5087;42.662;23.466;2023-05-10T10:12:00;3.30;;;3.20;;
10096;SDS011;5087;42.662;23.466;2023-05-10T10:14:27;3.00;;;3.00;;
10096;SDS011;5087;42.662;23.466;2023-05-10T10:16:55;3.20;;;3.20;;
10096;SDS011;5087;42.662;23.466;2023-05-10T10:19:22;3.43;;;3.43;;
10096;SDS011;5087;42.662;23.466;2023-05-10T10:21:51;3.40;;;3.40;;
10096;SDS011;5087;42.662;23.466;2023-05-10T10:24:18;3.60;;;3.60;;
10096;SDS011;5087;42.662;23.466;2023-05-10T10:26:45;3.50;;;3.50;;
10096;SDS011;5087;42.662;23.466;2023-05-10T10:29:20;3.40;;;3.40;;
10096;SDS011;5087;42.662;23.466;2023-05-10T10:31:57;3.57;;;3.57;;
10096;SDS011;5087;42.662;23.466;2023-05-10T10:34:34;4.00;;;3.90;;
10096;SDS011;5087;42.662;23.466;2023-05-10T10:37:05;3.50;;;3.50;;
10096;SDS011;5087;42.662;23.466;2023-05-10T10:39:33;5.00;;;4.90;;
10096;SDS011;5087;42.662;23.466;2023-05-10T10:42:02;3.00;;;3.00;;
10096;SDS011;5087;42.662;23.466;2023-05-10T10:44:40;3.50;;;3.50;;
10096;SDS011;5087;42.662;23.466;2023-05-10T10:47:10;3.40;;;3.40;;
10096;SDS011;5087;42.662;23.466;2023-05-10T10:50:05;3.37;;;3.33;;
10096;SDS011;5087;42.662;23.466;2023-05-10T10:52:38;3.23;;;3.23;;
10096;SDS011;5087;42.662;23.466;2023-05-10T10:55:10;3.30;;;3.30;;
10096;SDS011;5087;42.662;23.466;2023-05-10T10:57:48;3.20;;;3.20;;
10096;SDS011;5087;42.662;23.466;2023-05-10T11:00:22;3.10;;;3.10;;
10096;SDS011;5087;42.662;23.466;2023-05-10T11:02:52;3.50;;;3.50;;
10096;SDS011;5087;42.662;23.466;2023-05-10T11:05:27;3.50;;;3.50;;
10096;SDS011;5087;42.662;23.466;2023-05-10T11:08:08;3.20;;;3.20;;
10096;SDS011;5087;42.662;23.466;2023-05-10T11:10:40;3.30;;;3.30;;
10096;SDS011;5087;42.662;23.466;2023-05-10T11:13:26;3.10;;;3.10;;
10096;SDS011;5087;42.662;23.466;2023-05-10T11:15:55;3.40;;;3.40;;
10096;SDS011;5087;42.662;23.466;2023-05-10T11:18:24;3.40;;;3.40;;
10096;SDS011;5087;42.662;23.466;2023-05-10T11:20:56;3.60;;;3.50;;
10096;SDS011;5087;42.662;23.466;2023-05-10T11:23:48;3.30;;;3.30;;
10096;SDS011;5087;42.662;23.466;2023-05-10T11:26:16;3.10;;;3.10;;
10096;SDS011;5087;42.662;23.466;2023-05-10T11:28:44;3.40;;;3.40;;
10096;SDS011;5087;42.662;23.466;2023-05-10T11:31:15;3.40;;;3.40;;
10096;SDS011;5087;42.662;23.466;2023-05-10T11:33:43;3.40;;;3.40;;
10096;SDS011;5087;42.662;23.466;2023-05-10T11:36:18;3.40;;;3.40;;
10096;SDS011;5087;42.662;23.466;2023-05-10T11:38:52;3.77;;;3.77;;
10096;SDS011;5087;42.662;23.466;2023-05-10T11:41:20;3.40;;;3.40;;
10096;SDS011;5087;42.662;23.466;2023-05-10T11:43:49;3.60;;;3.60;;
10096;SDS011;5087;42.662;23.466;2023-05-10T11:46:18;3.80;;;3.80;;
10096;SDS011;5087;42.662;23.466;2023-05-10T11:48:47;3.80;;;3.80;;
10096;SDS011;5087;42.662;23.466;2023-05-10T11:51:26;4.30;;;4.20;;
10096;SDS011;5087;42.662;23.466;2023-05-10T11:53:56;5.17;;;5.07;;
10096;SDS011;5087;42.662;23.466;2023-05-10T11:56:24;4.70;;;4.60;;
10096;SDS011;5087;42.662;23.466;2023-05-10T11:58:52;3.97;;;3.90;;
10096;SDS011;5087;42.662;23.466;2023-05-10T12:01:21;4.13;;;4.03;;
10096;SDS011;5087;42.662;23.466;2023-05-10T12:03:48;4.00;;;3.90;;
10096;SDS011;5087;42.662;23.466;2023-05-10T12:06:16;3.57;;;3.57;;
10096;SDS011;5087;42.662;23.466;2023-05-10T12:08:45;3.17;;;3.17;;
10096;SDS011;5087;42.662;23.466;2023-05-10T12:11:14;4.13;;;4.03;;
10096;SDS011;5087;42.662;23.466;2023-05-10T12:13:43;3.70;;;3.70;;
10096;SDS011;5087;42.662;23.466;2023-05-10T12:16:12;4.50;;;4.40;;
10096;SDS011;5087;42.662;23.466;2023-05-10T12:18:44;3.80;;;3.80;;
10096;SDS011;5087;42.662;23.466;2023-05-10T12:21:14;3.90;;;3.90;;
10096;SDS011;5087;42.662;23.466;2023-05-10T12:23:42;4.17;;;4.07;;
10096;SDS011;5087;42.662;23.466;2023-05-10T12:26:12;4.40;;;4.30;;
10096;SDS011;5087;42.662;23.466;2023-05-10T12:28:42;3.47;;;3.47;;
10096;SDS011;5087;42.662;23.466;2023-05-10T12:31:11;3.57;;;3.57;;
10096;SDS011;5087;42.662;23.466;2023-05-10T12:33:38;4.27;;;4.17;;
10096;SDS011;5087;42.662;23.466;2023-05-10T12:36:08;4.03;;;3.93;;
10096;SDS011;5087;42.662;23.466;2023-05-10T12:38:36;5.33;;;5.13;;
10096;SDS011;5087;42.662;23.466;2023-05-10T12:41:06;3.90;;;3.90;;
10096;SDS011;5087;42.662;23.466;2023-05-10T12:43:43;5.13;;;4.83;;
10096;SDS011;5087;42.662;23.466;2023-05-10T12:46:12;4.30;;;4.20;;
10096;SDS011;5087;42.662;23.466;2023-05-10T12:48:40;3.90;;;3.90;;
10096;SDS011;5087;42.662;23.466;2023-05-10T12:51:10;4.30;;;4.20;;
10096;SDS011;5087;42.662;23.466;2023-05-10T12:53:48;3.80;;;3.80;;
10096;SDS011;5087;42.662;23.466;2023-05-10T12:56:25;3.70;;;3.70;;
10096;SDS011;5087;42.662;23.466;2023-05-10T12:58:54;3.77;;;3.77;;
10096;SDS011;5087;42.662;23.466;2023-05-10T13:01:21;3.70;;;3.70;;
10096;SDS011;5087;42.662;23.466;2023-05-10T13:03:49;3.57;;;3.57;;
10096;SDS011;5087;42.662;23.466;2023-05-10T13:06:16;4.10;;;4.00;;
10096;SDS011;5087;42.662;23.466;2023-05-10T13:08:44;4.50;;;4.40;;
10096;SDS011;5087;42.662;23.466;2023-05-10T13:11:11;4.67;;;4.57;;
10096;SDS011;5087;42.662;23.466;2023-05-10T13:13:41;4.00;;;3.93;;
10096;SDS011;5087;42.662;23.466;2023-05-10T13:16:10;4.00;;;3.90;;
10096;SDS011;5087;42.662;23.466;2023-05-10T13:18:38;3.83;;;3.83;;
10096;SDS011;5087;42.662;23.466;2023-05-10T13:21:05;4.20;;;4.10;;
10096;SDS011;5087;42.662;23.466;2023-05-10T13:23:33;4.67;;;4.47;;
10096;SDS011;5087;42.662;23.466;2023-05-10T13:26:00;4.17;;;4.07;;
10096;SDS011;5087;42.662;23.466;2023-05-10T13:28:27;3.60;;;3.60;;
10096;SDS011;5087;42.662;23.466;2023-05-10T13:30:55;3.80;;;3.80;;
10096;SDS011;5087;42.662;23.466;2023-05-10T13:33:24;3.33;;;3.33;;
10096;SDS011;5087;42.662;23.466;2023-05-10T13:35:51;4.30;;;4.20;;
10096;SDS011;5087;42.662;23.466;2023-05-10T13:38:18;4.53;;;4.43;;
10096;SDS011;5087;42.662;23.466;2023-05-10T13:40:46;4.20;;;4.10;;
10096;SDS011;5087;42.662;23.466;2023-05-10T13:43:17;3.50;;;3.50;;
10096;SDS011;5087;42.662;23.466;2023-05-10T13:45:50;3.30;;;3.30;;
10096;SDS011;5087;42.662;23.466;2023-05-10T13:48:20;3.30;;;3.30;;
10096;SDS011;5087;42.662;23.466;2023-05-10T13:50:49;3.20;;;3.20;;
10096;SDS011;5087;42.662;23.466;2023-05-10T13:53:20;3.10;;;3.10;;
10096;SDS011;5087;42.662;23.466;2023-05-10T13:55:47;3.70;;;3.70;;
10096;SDS011;5087;42.662;23.466;2023-05-10T13:58:15;5.03;;;4.73;;
10096;SDS011;5087;42.662;23.466;2023-05-10T14:00:43;3.60;;;3.60;;
10096;SDS011;5087;42.662;23.466;2023-05-10T14:03:10;3.50;;;3.50;;
10096;SDS011;5087;42.662;23.466;2023-05-10T14:05:37;4.20;;;4.10;;
10096;SDS011;5087;42.662;23.466;2023-05-10T14:08:06;3.80;;;3.80;;
10096;SDS011;5087;42.662;23.466;2023-05-10T14:10:34;3.90;;;3.90;;
10096;SDS011;5087;42.662;23.466;2023-05-10T14:13:02;3.63;;;3.63;;
10096;SDS011;5087;42.662;23.466;2023-05-10T14:15:29;3.90;;;3.90;;
10096;SDS011;5087;42.662;23.466;2023-05-10T14:17:56;3.60;;;3.60;;
10096;SDS011;5087;42.662;23.466;2023-05-10T14:20:24;3.40;;;3.40;;
10096;SDS011;5087;42.662;23.466;2023-05-10T14:22:52;4.10;;;4.00;;
10096;SDS011;5087;42.662;23.466;2023-05-10T14:25:21;4.40;;;4.30;;
10096;SDS011;5087;42.662;23.466;2023-05-10T14:27:48;3.90;;;3.87;;
10096;SDS011;5087;42.662;23.466;2023-05-10T14:30:16;3.50;;;3.50;;
10096;SDS011;5087;42.662;23.466;2023-05-10T14:32:46;3.70;;;3.70;;
10096;SDS011;5087;42.662;23.466;2023-05-10T14:35:14;4.67;;;4.57;;
10096;SDS011;5087;42.662;23.466;2023-05-10T14:37:41;3.70;;;3.70;;
10096;SDS011;5087;42.662;23.466;2023-05-10T14:40:12;3.77;;;3.77;;
10096;SDS011;5087;42.662;23.466;2023-05-10T14:42:49;4.00;;;3.90;;
10096;SDS011;5087;42.662;23.466;2023-05-10T14:45:18;4.47;;;4.37;;
10096;SDS011;5087;42.662;23.466;2023-05-10T14:47:45;3.90;;;3.90;;
10096;SDS011;5087;42.662;23.466;2023-05-10T14:50:13;3.60;;;3.60;;
10096;SDS011;5087;42.662;23.466;2023-05-10T14:52:40;3.40;;;3.40;;
10096;SDS011;5087;42.662;23.466;2023-05-10T14:55:08;3.70;;;3.70;;
10096;SDS011;5087;42.662;23.466;2023-05-10T14:57:36;4.10;;;4.03;;
10096;SDS011;5087;42.662;23.466;2023-05-10T15:00:05;3.10;;;3.10;;
10096;SDS011;5087;42.662;23.466;2023-05-10T15:02:33;3.50;;;3.50;;
10096;SDS011;5087;42.662;23.466;2023-05-10T15:05:04;3.60;;;3.60;;
10096;SDS011;5087;42.662;23.466;2023-05-10T15:07:31;3.40;;;3.40;;
10096;SDS011;5087;42.662;23.466;2023-05-10T15:09:59;4.00;;;3.90;;